sensor_id;sensor_type;location;lat;lon;timestamp;P1;durP1;ratioP1;P2;durP2;ratioP2
64459;SDS011;50828;53.756;21.140;2022-12-24T00:01:30;4.90;;;2.70;;
64459;SDS011;50828;53.756;21.140;2022-12-24T00:06:39;4.80;;;2.60;;
64459;SDS011;50828;53.756;21.140;2022-12-24T00:11:48;5.40;;;2.30;;
64459;SDS011;50828;53.756;21.140;2022-12-24T00:16:57;5.60;;;2.70;;
64459;SDS011;50828;53.756;21.140;2022-12-24T00:22:05;6.60;;;2.90;;
64459;SDS011;50828;53.756;21.140;2022-12-24T00:27:14;5.40;;;2.90;;
64459;SDS011;50828;53.756;21.140;2022-12-24T00:32:22;8.00;;;3.30;;
64459;SDS011;50828;53.756;21.140;2022-12-24T00:37:31;7.20;;;3.20;;
64459;SDS011;50828;53.756;21.140;2022-12-24T00:42:39;7.30;;;3.80;;
64459;SDS011;50828;53.756;21.140;2022-12-24T00:47:47;9.10;;;3.90;;
64459;SDS011;50828;53.756;21.140;2022-12-24T00:52:56;7.90;;;3.80;;
64459;SDS011;50828;53.756;21.140;2022-12-24T00:58:04;8.70;;;4.00;;
64459;SDS011;50828;53.756;21.140;2022-12-24T01:03:12;7.90;;;4.10;;
64459;SDS011;50828;53.756;21.140;2022-12-24T01:08:20;8.40;;;4.10;;
64459;SDS011;50828;53.756;21.140;2022-12-24T01:13:29;15.40;;;4.70;;
64459;SDS011;50828;53.756;21.140;2022-12-24T01:18:37;45.50;;;13.30;;
64459;SDS011;50828;53.756;21.140;2022-12-24T01:23:45;37.80;;;11.60;;
64459;SDS011;50828;53.756;21.140;2022-12-24T01:28:54;22.70;;;7.10;;
64459;SDS011;50828;53.756;21.140;2022-12-24T01:34:02;11.70;;;5.10;;
64459;SDS011;50828;53.756;21.140;2022-12-24T01:39:11;12.20;;;4.80;;
64459;SDS011;50828;53.756;21.140;2022-12-24T01:44:22;14.50;;;5.10;;
64459;SDS011;50828;53.756;21.140;2022-12-24T01:49:41;12.70;;;5.20;;
64459;SDS011;50828;53.756;21.140;2022-12-24T01:54:56;10.10;;;4.50;;
64459;SDS011;50828;53.756;21.140;2022-12-24T02:00:09;58.10;;;12.10;;
64459;SDS011;50828;53.756;21.140;2022-12-24T02:05:21;80.40;;;16.00;;
64459;SDS011;50828;53.756;21.140;2022-12-24T02:10:34;41.30;;;9.60;;
64459;SDS011;50828;53.756;21.140;2022-12-24T02:15:48;14.90;;;5.70;;
64459;SDS011;50828;53.756;21.140;2022-12-24T02:21:14;16.10;;;5.10;;
64459;SDS011;50828;53.756;21.140;2022-12-24T02:26:54;23.30;;;7.10;;
64459;SDS011;50828;53.756;21.140;2022-12-24T02:32:22;35.60;;;9.90;;
64459;SDS011;50828;53.756;21.140;2022-12-24T02:37:35;24.40;;;7.80;;
64459;SDS011;50828;53.756;21.140;2022-12-24T02:42:47;11.30;;;6.00;;
64459;SDS011;50828;53.756;21.140;2022-12-24T02:48:01;11.50;;;4.50;;
64459;SDS011;50828;53.756;21.140;2022-12-24T02:53:10;13.30;;;6.40;;
64459;SDS011;50828;53.756;21.140;2022-12-24T02:58:24;10.20;;;5.10;;
64459;SDS011;50828;53.756;21.140;2022-12-24T03:03:42;8.50;;;4.30;;
64459;SDS011;50828;53.756;21.140;2022-12-24T03:09:11;10.10;;;4.70;;
64459;SDS011;50828;53.756;21.140;2022-12-24T03:14:26;21.80;;;6.50;;
64459;SDS011;50828;53.756;21.140;2022-12-24T03:19:37;19.30;;;7.30;;
64459;SDS011;50828;53.756;21.140;2022-12-24T03:24:46;26.10;;;7.10;;
64459;SDS011;50828;53.756;21.140;2022-12-24T03:29:54;59.90;;;15.20;;
64459;SDS011;50828;53.756;21.140;2022-12-24T03:35:03;90.40;;;20.60;;
64459;SDS011;50828;53.756;21.140;2022-12-24T03:40:13;120.80;;;25.70;;
64459;SDS011;50828;53.756;21.140;2022-12-24T03:45:22;87.30;;;19.30;;
64459;SDS011;50828;53.756;21.140;2022-12-24T03:50:31;44.40;;;12.10;;
64459;SDS011;50828;53.756;21.140;2022-12-24T03:55:39;52.70;;;13.30;;
64459;SDS011;50828;53.756;21.140;2022-12-24T04:00:47;56.30;;;11.30;;
64459;SDS011;50828;53.756;21.140;2022-12-24T04:06:04;71.80;;;15.00;;
64459;SDS011;50828;53.756;21.140;2022-12-24T04:11:14;112.10;;;22.70;;
64459;SDS011;50828;53.756;21.140;2022-12-24T04:16:24;246.60;;;45.90;;
64459;SDS011;50828;53.756;21.140;2022-12-24T04:21:32;243.10;;;45.30;;
64459;SDS011;50828;53.756;21.140;2022-12-24T04:26:41;315.30;;;55.50;;
64459;SDS011;50828;53.756;21.140;2022-12-24T04:31:49;284.80;;;52.20;;
64459;SDS011;50828;53.756;21.140;2022-12-24T04:36:57;173.00;;;34.90;;
64459;SDS011;50828;53.756;21.140;2022-12-24T04:42:06;125.90;;;26.50;;
64459;SDS011;50828;53.756;21.140;2022-12-24T04:47:14;155.80;;;32.60;;
64459;SDS011;50828;53.756;21.140;2022-12-24T04:52:22;136.50;;;28.40;;
64459;SDS011;50828;53.756;21.140;2022-12-24T04:57:31;108.20;;;25.20;;
64459;SDS011;50828;53.756;21.140;2022-12-24T05:02:41;129.00;;;27.20;;
64459;SDS011;50828;53.756;21.140;2022-12-24T05:07:50;121.30;;;27.70;;
64459;SDS011;50828;53.756;21.140;2022-12-24T05:12:58;78.20;;;18.70;;
64459;SDS011;50828;53.756;21.140;2022-12-24T05:18:07;42.70;;;10.40;;
64459;SDS011;50828;53.756;21.140;2022-12-24T05:23:16;29.60;;;10.50;;
64459;SDS011;50828;53.756;21.140;2022-12-24T05:28:44;36.50;;;11.60;;
64459;SDS011;50828;53.756;21.140;2022-12-24T05:33:52;41.90;;;13.50;;
64459;SDS011;50828;53.756;21.140;2022-12-24T05:39:01;48.70;;;15.00;;
64459;SDS011;50828;53.756;21.140;2022-12-24T05:44:16;39.20;;;12.20;;
64459;SDS011;50828;53.756;21.140;2022-12-24T05:49:25;44.40;;;12.00;;
64459;SDS011;50828;53.756;21.140;2022-12-24T05:54:34;39.10;;;11.50;;
64459;SDS011;50828;53.756;21.140;2022-12-24T05:59:42;31.30;;;10.00;;
64459;SDS011;50828;53.756;21.140;2022-12-24T06:04:52;28.30;;;11.30;;
64459;SDS011;50828;53.756;21.140;2022-12-24T06:10:00;27.50;;;10.70;;
64459;SDS011;50828;53.756;21.140;2022-12-24T06:15:09;29.10;;;10.00;;
64459;SDS011;50828;53.756;21.140;2022-12-24T06:20:28;23.60;;;8.90;;
64459;SDS011;50828;53.756;21.140;2022-12-24T06:25:36;26.70;;;10.30;;
64459;SDS011;50828;53.756;21.140;2022-12-24T06:30:46;33.10;;;10.40;;
64459;SDS011;50828;53.756;21.140;2022-12-24T06:36:07;19.90;;;8.30;;
64459;SDS011;50828;53.756;21.140;2022-12-24T06:41:21;23.40;;;8.70;;
64459;SDS011;50828;53.756;21.140;2022-12-24T06:46:29;58.90;;;16.50;;
64459;SDS011;50828;53.756;21.140;2022-12-24T06:51:38;61.80;;;16.30;;
64459;SDS011;50828;53.756;21.140;2022-12-24T06:56:46;76.30;;;20.00;;
64459;SDS011;50828;53.756;21.140;2022-12-24T07:01:55;96.90;;;25.20;;
64459;SDS011;50828;53.756;21.140;2022-12-24T07:07:03;101.80;;;27.60;;
64459;SDS011;50828;53.756;21.140;2022-12-24T07:12:11;110.40;;;30.80;;
64459;SDS011;50828;53.756;21.140;2022-12-24T07:17:19;79.10;;;24.20;;
64459;SDS011;50828;53.756;21.140;2022-12-24T07:22:28;67.40;;;21.30;;
64459;SDS011;50828;53.756;21.140;2022-12-24T07:27:37;58.10;;;23.30;;
64459;SDS011;50828;53.756;21.140;2022-12-24T07:32:45;58.50;;;21.50;;
64459;SDS011;50828;53.756;21.140;2022-12-24T07:37:53;57.40;;;20.10;;
64459;SDS011;50828;53.756;21.140;2022-12-24T07:43:01;67.80;;;23.50;;
64459;SDS011;50828;53.756;21.140;2022-12-24T07:48:08;65.30;;;24.10;;
64459;SDS011;50828;53.756;21.140;2022-12-24T07:53:17;53.10;;;21.70;;
64459;SDS011;50828;53.756;21.140;2022-12-24T07:58:26;64.40;;;23.90;;
64459;SDS011;50828;53.756;21.140;2022-12-24T08:03:35;61.60;;;22.20;;
64459;SDS011;50828;53.756;21.140;2022-12-24T08:08:44;69.10;;;24.60;;
64459;SDS011;50828;53.756;21.140;2022-12-24T08:13:52;50.80;;;19.10;;
64459;SDS011;50828;53.756;21.140;2022-12-24T08:19:01;46.80;;;16.60;;
64459;SDS011;50828;53.756;21.140;2022-12-24T08:24:10;37.20;;;15.20;;
64459;SDS011;50828;53.756;21.140;2022-12-24T08:29:18;32.30;;;12.60;;
64459;SDS011;50828;53.756;21.140;2022-12-24T08:34:27;25.80;;;11.50;;
64459;SDS011;50828;53.756;21.140;2022-12-24T08:39:35;31.20;;;14.70;;
64459;SDS011;50828;53.756;21.140;2022-12-24T08:44:44;30.70;;;15.50;;
64459;SDS011;50828;53.756;21.140;2022-12-24T08:49:52;30.30;;;14.10;;
64459;SDS011;50828;53.756;21.140;2022-12-24T08:55:01;37.30;;;15.60;;
64459;SDS011;50828;53.756;21.140;2022-12-24T09:00:11;37.50;;;15.30;;
64459;SDS011;50828;53.756;21.140;2022-12-24T09:05:20;20.70;;;10.00;;
64459;SDS011;50828;53.756;21.140;2022-12-24T09:10:29;27.10;;;14.70;;
64459;SDS011;50828;53.756;21.140;2022-12-24T09:15:38;65.10;;;20.30;;
64459;SDS011;50828;53.756;21.140;2022-12-24T09:20:45;118.40;;;41.00;;
64459;SDS011;50828;53.756;21.140;2022-12-24T09:26:01;67.90;;;23.90;;
64459;SDS011;50828;53.756;21.140;2022-12-24T09:31:12;63.50;;;22.90;;
64459;SDS011;50828;53.756;21.140;2022-12-24T09:36:22;58.30;;;20.80;;
64459;SDS011;50828;53.756;21.140;2022-12-24T09:41:37;43.20;;;13.90;;
64459;SDS011;50828;53.756;21.140;2022-12-24T09:46:53;31.50;;;11.50;;
64459;SDS011;50828;53.756;21.140;2022-12-24T09:52:14;33.70;;;10.20;;
64459;SDS011;50828;53.756;21.140;2022-12-24T09:57:33;29.20;;;9.90;;
64459;SDS011;50828;53.756;21.140;2022-12-24T10:02:44;32.40;;;12.20;;
64459;SDS011;50828;53.756;21.140;2022-12-24T10:07:53;33.30;;;12.60;;
64459;SDS011;50828;53.756;21.140;2022-12-24T10:13:15;23.60;;;9.50;;
64459;SDS011;50828;53.756;21.140;2022-12-24T10:18:33;15.80;;;8.00;;
64459;SDS011;50828;53.756;21.140;2022-12-24T10:23:54;15.00;;;7.40;;
64459;SDS011;50828;53.756;21.140;2022-12-24T10:29:13;14.40;;;6.80;;
64459;SDS011;50828;53.756;21.140;2022-12-24T10:39:32;20.00;;;7.40;;
64459;SDS011;50828;53.756;21.140;2022-12-24T10:44:40;18.20;;;8.20;;
64459;SDS011;50828;53.756;21.140;2022-12-24T10:49:56;12.20;;;5.00;;
64459;SDS011;50828;53.756;21.140;2022-12-24T10:55:12;11.80;;;5.50;;
64459;SDS011;50828;53.756;21.140;2022-12-24T11:00:31;12.50;;;4.70;;
64459;SDS011;50828;53.756;21.140;2022-12-24T11:05:41;22.30;;;7.10;;
64459;SDS011;50828;53.756;21.140;2022-12-24T11:10:55;26.60;;;9.40;;
64459;SDS011;50828;53.756;21.140;2022-12-24T11:16:06;30.30;;;10.30;;
64459;SDS011;50828;53.756;21.140;2022-12-24T11:21:24;22.20;;;7.20;;
64459;SDS011;50828;53.756;21.140;2022-12-24T11:26:35;62.20;;;14.40;;
64459;SDS011;50828;53.756;21.140;2022-12-24T11:31:44;29.60;;;8.40;;
64459;SDS011;50828;53.756;21.140;2022-12-24T11:37:06;14.30;;;5.80;;
64459;SDS011;50828;53.756;21.140;2022-12-24T11:42:24;7.70;;;3.80;;
64459;SDS011;50828;53.756;21.140;2022-12-24T11:47:37;34.40;;;10.00;;
64459;SDS011;50828;53.756;21.140;2022-12-24T11:52:46;44.00;;;11.70;;
64459;SDS011;50828;53.756;21.140;2022-12-24T11:58:01;43.40;;;12.70;;
64459;SDS011;50828;53.756;21.140;2022-12-24T12:03:26;52.30;;;14.50;;
64459;SDS011;50828;53.756;21.140;2022-12-24T12:08:38;44.70;;;14.40;;
64459;SDS011;50828;53.756;21.140;2022-12-24T12:13:47;43.80;;;12.40;;
64459;SDS011;50828;53.756;21.140;2022-12-24T12:18:57;52.30;;;15.20;;
64459;SDS011;50828;53.756;21.140;2022-12-24T12:24:18;45.40;;;14.60;;
64459;SDS011;50828;53.756;21.140;2022-12-24T12:29:38;23.40;;;7.80;;
64459;SDS011;50828;53.756;21.140;2022-12-24T12:34:54;12.30;;;5.40;;
64459;SDS011;50828;53.756;21.140;2022-12-24T12:40:13;30.10;;;8.50;;
64459;SDS011;50828;53.756;21.140;2022-12-24T12:45:29;20.90;;;7.60;;
64459;SDS011;50828;53.756;21.140;2022-12-24T12:50:46;22.80;;;9.30;;
64459;SDS011;50828;53.756;21.140;2022-12-24T12:56:03;18.60;;;7.00;;
64459;SDS011;50828;53.756;21.140;2022-12-24T13:01:22;18.80;;;6.30;;
64459;SDS011;50828;53.756;21.140;2022-12-24T13:06:47;23.30;;;8.50;;
64459;SDS011;50828;53.756;21.140;2022-12-24T13:12:38;21.20;;;6.90;;
64459;SDS011;50828;53.756;21.140;2022-12-24T13:23:37;17.70;;;7.10;;
64459;SDS011;50828;53.756;21.140;2022-12-24T13:28:46;10.00;;;4.40;;
64459;SDS011;50828;53.756;21.140;2022-12-24T13:33:56;24.80;;;10.60;;
64459;SDS011;50828;53.756;21.140;2022-12-24T13:39:08;17.40;;;6.70;;
64459;SDS011;50828;53.756;21.140;2022-12-24T13:44:28;10.90;;;5.00;;
64459;SDS011;50828;53.756;21.140;2022-12-24T13:49:40;9.70;;;4.90;;
64459;SDS011;50828;53.756;21.140;2022-12-24T13:55:01;6.00;;;3.40;;
64459;SDS011;50828;53.756;21.140;2022-12-24T14:00:36;6.40;;;3.10;;
64459;SDS011;50828;53.756;21.140;2022-12-24T14:05:49;8.30;;;4.00;;
64459;SDS011;50828;53.756;21.140;2022-12-24T14:11:04;7.60;;;4.40;;
64459;SDS011;50828;53.756;21.140;2022-12-24T14:16:16;6.80;;;3.50;;
64459;SDS011;50828;53.756;21.140;2022-12-24T14:21:27;8.30;;;4.30;;
64459;SDS011;50828;53.756;21.140;2022-12-24T14:26:44;10.60;;;5.40;;
64459;SDS011;50828;53.756;21.140;2022-12-24T14:31:58;12.30;;;5.50;;
64459;SDS011;50828;53.756;21.140;2022-12-24T14:37:09;7.80;;;3.80;;
64459;SDS011;50828;53.756;21.140;2022-12-24T14:42:25;10.00;;;5.00;;
64459;SDS011;50828;53.756;21.140;2022-12-24T14:47:43;9.10;;;4.20;;
64459;SDS011;50828;53.756;21.140;2022-12-24T14:53:01;7.70;;;4.20;;
64459;SDS011;50828;53.756;21.140;2022-12-24T14:58:24;34.90;;;12.10;;
64459;SDS011;50828;53.756;21.140;2022-12-24T15:03:35;13.10;;;5.80;;
64459;SDS011;50828;53.756;21.140;2022-12-24T15:08:46;12.80;;;4.60;;
64459;SDS011;50828;53.756;21.140;2022-12-24T15:13:55;13.00;;;4.70;;
64459;SDS011;50828;53.756;21.140;2022-12-24T15:19:06;11.80;;;5.00;;
64459;SDS011;50828;53.756;21.140;2022-12-24T15:24:25;37.50;;;13.90;;
64459;SDS011;50828;53.756;21.140;2022-12-24T15:29:38;33.60;;;11.20;;
64459;SDS011;50828;53.756;21.140;2022-12-24T15:34:48;21.80;;;7.80;;
64459;SDS011;50828;53.756;21.140;2022-12-24T15:39:59;11.00;;;4.90;;
64459;SDS011;50828;53.756;21.140;2022-12-24T15:45:14;8.90;;;4.50;;
64459;SDS011;50828;53.756;21.140;2022-12-24T15:50:32;9.50;;;4.30;;
64459;SDS011;50828;53.756;21.140;2022-12-24T15:55:43;10.40;;;5.00;;
64459;SDS011;50828;53.756;21.140;2022-12-24T16:01:17;9.00;;;4.00;;
64459;SDS011;50828;53.756;21.140;2022-12-24T16:12:02;56.20;;;14.60;;
64459;SDS011;50828;53.756;21.140;2022-12-24T16:17:19;64.40;;;16.80;;
64459;SDS011;50828;53.756;21.140;2022-12-24T16:27:38;25.50;;;7.60;;
64459;SDS011;50828;53.756;21.140;2022-12-24T16:32:47;26.70;;;7.90;;
64459;SDS011;50828;53.756;21.140;2022-12-24T16:37:55;19.80;;;7.70;;
64459;SDS011;50828;53.756;21.140;2022-12-24T16:43:04;11.40;;;4.80;;
64459;SDS011;50828;53.756;21.140;2022-12-24T16:48:35;23.50;;;7.70;;
64459;SDS011;50828;53.756;21.140;2022-12-24T16:53:44;16.10;;;6.40;;
64459;SDS011;50828;53.756;21.140;2022-12-24T16:58:53;19.10;;;7.60;;
64459;SDS011;50828;53.756;21.140;2022-12-24T17:04:02;9.70;;;4.60;;
64459;SDS011;50828;53.756;21.140;2022-12-24T17:09:11;14.70;;;5.70;;
64459;SDS011;50828;53.756;21.140;2022-12-24T17:14:20;25.90;;;7.80;;
64459;SDS011;50828;53.756;21.140;2022-12-24T17:19:28;10.00;;;4.50;;
64459;SDS011;50828;53.756;21.140;2022-12-24T17:24:37;30.10;;;9.40;;
64459;SDS011;50828;53.756;21.140;2022-12-24T17:29:45;10.60;;;4.60;;
64459;SDS011;50828;53.756;21.140;2022-12-24T17:34:54;14.70;;;5.30;;
64459;SDS011;50828;53.756;21.140;2022-12-24T17:40:08;20.40;;;7.00;;
64459;SDS011;50828;53.756;21.140;2022-12-24T17:45:18;14.00;;;4.40;;
64459;SDS011;50828;53.756;21.140;2022-12-24T17:50:27;8.10;;;3.60;;
64459;SDS011;50828;53.756;21.140;2022-12-24T17:55:40;5.60;;;3.10;;
64459;SDS011;50828;53.756;21.140;2022-12-24T18:00:50;7.60;;;3.60;;
64459;SDS011;50828;53.756;21.140;2022-12-24T18:06:03;4.10;;;2.50;;
64459;SDS011;50828;53.756;21.140;2022-12-24T18:11:13;5.80;;;3.00;;
64459;SDS011;50828;53.756;21.140;2022-12-24T18:16:24;4.60;;;3.00;;
64459;SDS011;50828;53.756;21.140;2022-12-24T18:21:35;4.20;;;2.50;;
64459;SDS011;50828;53.756;21.140;2022-12-24T18:26:44;5.20;;;2.50;;
64459;SDS011;50828;53.756;21.140;2022-12-24T18:31:53;8.40;;;3.30;;
64459;SDS011;50828;53.756;21.140;2022-12-24T18:37:02;8.90;;;3.90;;
64459;SDS011;50828;53.756;21.140;2022-12-24T18:42:11;14.70;;;7.70;;
64459;SDS011;50828;53.756;21.140;2022-12-24T18:47:20;16.10;;;8.30;;
64459;SDS011;50828;53.756;21.140;2022-12-24T18:52:30;11.80;;;5.90;;
64459;SDS011;50828;53.756;21.140;2022-12-24T18:57:39;11.40;;;6.00;;
64459;SDS011;50828;53.756;21.140;2022-12-24T19:02:48;9.50;;;5.10;;
64459;SDS011;50828;53.756;21.140;2022-12-24T19:07:57;8.00;;;4.60;;
64459;SDS011;50828;53.756;21.140;2022-12-24T19:13:27;5.70;;;3.90;;
64459;SDS011;50828;53.756;21.140;2022-12-24T19:18:35;7.90;;;4.60;;
64459;SDS011;50828;53.756;21.140;2022-12-24T19:23:44;16.20;;;7.10;;
64459;SDS011;50828;53.756;21.140;2022-12-24T19:28:54;16.70;;;8.00;;
64459;SDS011;50828;53.756;21.140;2022-12-24T19:34:03;12.80;;;5.80;;
64459;SDS011;50828;53.756;21.140;2022-12-24T19:39:12;11.20;;;6.10;;
64459;SDS011;50828;53.756;21.140;2022-12-24T19:44:21;11.50;;;6.00;;
64459;SDS011;50828;53.756;21.140;2022-12-24T19:49:31;8.70;;;5.40;;
64459;SDS011;50828;53.756;21.140;2022-12-24T19:54:40;8.50;;;5.30;;
64459;SDS011;50828;53.756;21.140;2022-12-24T19:59:49;7.70;;;4.70;;
64459;SDS011;50828;53.756;21.140;2022-12-24T20:04:58;22.60;;;7.90;;
64459;SDS011;50828;53.756;21.140;2022-12-24T20:10:07;274.20;;;63.20;;
64459;SDS011;50828;53.756;21.140;2022-12-24T20:15:17;151.30;;;38.40;;
64459;SDS011;50828;53.756;21.140;2022-12-24T20:20:25;102.40;;;28.50;;
64459;SDS011;50828;53.756;21.140;2022-12-24T20:25:34;76.20;;;20.60;;
64459;SDS011;50828;53.756;21.140;2022-12-24T20:30:44;32.10;;;10.30;;
64459;SDS011;50828;53.756;21.140;2022-12-24T20:35:53;19.40;;;6.00;;
64459;SDS011;50828;53.756;21.140;2022-12-24T20:41:08;15.30;;;5.90;;
64459;SDS011;50828;53.756;21.140;2022-12-24T20:46:18;14.30;;;6.80;;
64459;SDS011;50828;53.756;21.140;2022-12-24T20:51:29;9.60;;;4.60;;
64459;SDS011;50828;53.756;21.140;2022-12-24T20:56:38;13.60;;;5.30;;
64459;SDS011;50828;53.756;21.140;2022-12-24T21:01:47;19.50;;;7.70;;
64459;SDS011;50828;53.756;21.140;2022-12-24T21:06:57;21.20;;;7.60;;
64459;SDS011;50828;53.756;21.140;2022-12-24T21:12:07;20.10;;;6.80;;
64459;SDS011;50828;53.756;21.140;2022-12-24T21:17:35;29.10;;;9.00;;
64459;SDS011;50828;53.756;21.140;2022-12-24T21:22:44;36.50;;;10.20;;
64459;SDS011;50828;53.756;21.140;2022-12-24T21:27:56;83.50;;;18.00;;
64459;SDS011;50828;53.756;21.140;2022-12-24T21:33:06;47.40;;;12.30;;
64459;SDS011;50828;53.756;21.140;2022-12-24T21:38:14;27.30;;;8.90;;
64459;SDS011;50828;53.756;21.140;2022-12-24T21:43:23;25.20;;;8.70;;
64459;SDS011;50828;53.756;21.140;2022-12-24T21:48:32;19.00;;;7.70;;
64459;SDS011;50828;53.756;21.140;2022-12-24T21:53:59;16.10;;;7.10;;
64459;SDS011;50828;53.756;21.140;2022-12-24T21:59:27;12.00;;;6.30;;
64459;SDS011;50828;53.756;21.140;2022-12-24T22:04:36;26.90;;;13.00;;
64459;SDS011;50828;53.756;21.140;2022-12-24T22:09:45;25.90;;;13.00;;
64459;SDS011;50828;53.756;21.140;2022-12-24T22:15:13;15.60;;;8.10;;
64459;SDS011;50828;53.756;21.140;2022-12-24T22:20:21;14.60;;;7.30;;
64459;SDS011;50828;53.756;21.140;2022-12-24T22:25:30;14.90;;;7.00;;
64459;SDS011;50828;53.756;21.140;2022-12-24T22:30:38;13.80;;;6.40;;
64459;SDS011;50828;53.756;21.140;2022-12-24T22:35:47;10.00;;;5.70;;
64459;SDS011;50828;53.756;21.140;2022-12-24T22:40:57;12.70;;;6.20;;
64459;SDS011;50828;53.756;21.140;2022-12-24T22:46:06;13.00;;;6.80;;
64459;SDS011;50828;53.756;21.140;2022-12-24T22:51:18;14.30;;;7.10;;
64459;SDS011;50828;53.756;21.140;2022-12-24T22:56:27;12.30;;;6.90;;
64459;SDS011;50828;53.756;21.140;2022-12-24T23:01:45;11.00;;;5.50;;
64459;SDS011;50828;53.756;21.140;2022-12-24T23:06:56;11.60;;;6.80;;
64459;SDS011;50828;53.756;21.140;2022-12-24T23:12:05;11.70;;;6.70;;
64459;SDS011;50828;53.756;21.140;2022-12-24T23:17:14;11.50;;;6.40;;
64459;SDS011;50828;53.756;21.140;2022-12-24T23:22:23;13.80;;;6.30;;
64459;SDS011;50828;53.756;21.140;2022-12-24T23:27:31;10.30;;;6.00;;
64459;SDS011;50828;53.756;21.140;2022-12-24T23:32:40;8.70;;;5.40;;
64459;SDS011;50828;53.756;21.140;2022-12-24T23:37:49;11.00;;;5.70;;
64459;SDS011;50828;53.756;21.140;2022-12-24T23:42:57;10.20;;;5.50;;
64459;SDS011;50828;53.756;21.140;2022-12-24T23:48:06;12.20;;;6.10;;
64459;SDS011;50828;53.756;21.140;2022-12-24T23:53:16;13.00;;;5.80;;
64459;SDS011;50828;53.756;21.140;2022-12-24T23:58:24;12.50;;;6.70;;
